sensor_id;sensor_type;location;lat;lon;timestamp;pressure;altitude;pressure_sealevel;temperature;humidity
84944;BME280;75231;53.650;9.788;2024-02-28T00:01:58;102120.22;;;4.70;76.05
84944;BME280;75231;53.650;9.788;2024-02-28T00:04:24;102121.06;;;4.70;76.14
84944;BME280;75231;53.650;9.788;2024-02-28T00:06:49;102127.94;;;4.68;76.08
84944;BME280;75231;53.650;9.788;2024-02-28T00:09:14;102129.88;;;4.54;75.54
84944;BME280;75231;53.650;9.788;2024-02-28T00:11:43;102115.31;;;4.56;76.10
84944;BME280;75231;53.650;9.788;2024-02-28T00:14:09;102122.97;;;4.59;76.12
84944;BME280;75231;53.650;9.788;2024-02-28T00:16:35;102128.97;;;4.57;75.80
84944;BME280;75231;53.650;9.788;2024-02-28T00:19:01;102130.69;;;4.58;76.85
84944;BME280;75231;53.650;9.788;2024-02-28T00:21:26;102138.41;;;4.55;75.88
84944;BME280;75231;53.650;9.788;2024-02-28T00:23:51;102132.47;;;4.53;76.25
84944;BME280;75231;53.650;9.788;2024-02-28T00:26:17;102135.00;;;4.54;76.30
84944;BME280;75231;53.650;9.788;2024-02-28T00:28:42;102124.94;;;4.43;76.30
84944;BME280;75231;53.650;9.788;2024-02-28T00:31:07;102132.41;;;4.56;77.45
84944;BME280;75231;53.650;9.788;2024-02-28T00:33:32;102124.72;;;4.57;76.88
84944;BME280;75231;53.650;9.788;2024-02-28T00:35:58;102128.91;;;4.61;77.08
84944;BME280;75231;53.650;9.788;2024-02-28T00:38:23;102119.41;;;4.68;76.19
84944;BME280;75231;53.650;9.788;2024-02-28T00:40:48;102106.75;;;4.59;76.11
84944;BME280;75231;53.650;9.788;2024-02-28T00:43:14;102124.69;;;4.59;75.94
84944;BME280;75231;53.650;9.788;2024-02-28T00:45:39;102121.28;;;4.58;76.98
84944;BME280;75231;53.650;9.788;2024-02-28T00:48:05;102127.97;;;4.67;77.13
84944;BME280;75231;53.650;9.788;2024-02-28T00:50:30;102118.59;;;4.64;76.86
84944;BME280;75231;53.650;9.788;2024-02-28T00:52:55;102107.53;;;4.62;76.97
84944;BME280;75231;53.650;9.788;2024-02-28T00:55:20;102131.38;;;4.67;76.95
84944;BME280;75231;53.650;9.788;2024-02-28T00:57:46;102112.72;;;4.59;75.86
84944;BME280;75231;53.650;9.788;2024-02-28T01:00:11;102119.50;;;4.62;76.41
84944;BME280;75231;53.650;9.788;2024-02-28T01:02:37;102110.06;;;4.65;76.82
84944;BME280;75231;53.650;9.788;2024-02-28T01:05:02;102103.31;;;4.60;76.68
84944;BME280;75231;53.650;9.788;2024-02-28T01:07:27;102097.31;;;4.61;76.97
84944;BME280;75231;53.650;9.788;2024-02-28T01:09:53;102098.94;;;4.65;77.18
84944;BME280;75231;53.650;9.788;2024-02-28T01:12:19;102089.63;;;4.61;76.96
84944;BME280;75231;53.650;9.788;2024-02-28T01:14:44;102091.28;;;4.63;76.24
84944;BME280;75231;53.650;9.788;2024-02-28T01:17:09;102085.44;;;4.55;75.65
84944;BME280;75231;53.650;9.788;2024-02-28T01:19:34;102083.91;;;4.45;75.72
84944;BME280;75231;53.650;9.788;2024-02-28T01:22:00;102097.56;;;4.45;75.88
84944;BME280;75231;53.650;9.788;2024-02-28T01:24:25;102102.75;;;4.42;75.75
84944;BME280;75231;53.650;9.788;2024-02-28T01:26:51;102094.25;;;4.39;75.54
84944;BME280;75231;53.650;9.788;2024-02-28T01:29:16;102100.25;;;4.38;75.84
84944;BME280;75231;53.650;9.788;2024-02-28T01:31:41;102108.78;;;4.38;76.12
84944;BME280;75231;53.650;9.788;2024-02-28T01:34:06;102092.53;;;4.39;76.59
84944;BME280;75231;53.650;9.788;2024-02-28T01:36:32;102090.81;;;4.40;75.83
84944;BME280;75231;53.650;9.788;2024-02-28T01:38:57;102089.13;;;4.39;76.09
84944;BME280;75231;53.650;9.788;2024-02-28T01:41:23;102098.31;;;4.52;76.65
84944;BME280;75231;53.650;9.788;2024-02-28T01:43:48;102094.97;;;4.47;76.49
84944;BME280;75231;53.650;9.788;2024-02-28T01:46:26;102097.47;;;4.52;76.65
84944;BME280;75231;53.650;9.788;2024-02-28T01:48:52;102089.88;;;4.45;76.98
84944;BME280;75231;53.650;9.788;2024-02-28T01:51:18;102094.31;;;4.36;76.58
84944;BME280;75231;53.650;9.788;2024-02-28T01:53:44;102104.41;;;4.45;76.61
84944;BME280;75231;53.650;9.788;2024-02-28T01:56:12;102094.25;;;4.39;76.93
84944;BME280;75231;53.650;9.788;2024-02-28T01:58:39;102093.34;;;4.43;76.90
84944;BME280;75231;53.650;9.788;2024-02-28T02:01:05;102095.78;;;4.49;76.77
84944;BME280;75231;53.650;9.788;2024-02-28T02:03:32;102092.47;;;4.44;75.96
84944;BME280;75231;53.650;9.788;2024-02-28T02:06:01;102091.53;;;4.48;75.57
84944;BME280;75231;53.650;9.788;2024-02-28T02:08:26;102102.00;;;4.33;75.84
84944;BME280;75231;53.650;9.788;2024-02-28T02:10:51;102094.31;;;4.33;76.35
84944;BME280;75231;53.650;9.788;2024-02-28T02:13:17;102100.31;;;4.35;76.06
84944;BME280;75231;53.650;9.788;2024-02-28T02:15:42;102102.88;;;4.32;76.42
84944;BME280;75231;53.650;9.788;2024-02-28T02:18:07;102101.13;;;4.37;76.43
84944;BME280;75231;53.650;9.788;2024-02-28T02:20:38;102107.03;;;4.42;76.44
84944;BME280;75231;53.650;9.788;2024-02-28T02:23:04;102103.66;;;4.38;76.78
84944;BME280;75231;53.650;9.788;2024-02-28T02:25:29;102100.31;;;4.32;76.89
84944;BME280;75231;53.650;9.788;2024-02-28T02:27:55;102096.00;;;4.37;76.21
84944;BME280;75231;53.650;9.788;2024-02-28T02:30:20;102094.38;;;4.30;76.49
84944;BME280;75231;53.650;9.788;2024-02-28T02:32:45;102093.56;;;4.28;76.38
84944;BME280;75231;53.650;9.788;2024-02-28T02:35:10;102089.22;;;4.33;76.48
84944;BME280;75231;53.650;9.788;2024-02-28T02:37:36;102089.25;;;4.31;76.17
84944;BME280;75231;53.650;9.788;2024-02-28T02:40:01;102086.69;;;4.31;76.44
84944;BME280;75231;53.650;9.788;2024-02-28T02:42:26;102094.31;;;4.36;76.10
84944;BME280;75231;53.650;9.788;2024-02-28T02:44:52;102085.03;;;4.29;76.52
84944;BME280;75231;53.650;9.788;2024-02-28T02:47:17;102102.81;;;4.38;75.61
84944;BME280;75231;53.650;9.788;2024-02-28T02:49:42;102098.59;;;4.34;76.41
84944;BME280;75231;53.650;9.788;2024-02-28T02:52:08;102107.19;;;4.30;76.53
84944;BME280;75231;53.650;9.788;2024-02-28T02:54:33;102106.31;;;4.34;76.76
84944;BME280;75231;53.650;9.788;2024-02-28T02:56:59;102107.97;;;4.35;76.57
84944;BME280;75231;53.650;9.788;2024-02-28T02:59:24;102107.19;;;4.30;77.00
84944;BME280;75231;53.650;9.788;2024-02-28T03:01:49;102101.13;;;4.37;76.66
84944;BME280;75231;53.650;9.788;2024-02-28T03:04:14;102117.19;;;4.46;77.28
84944;BME280;75231;53.650;9.788;2024-02-28T03:06:40;102112.88;;;4.48;76.45
84944;BME280;75231;53.650;9.788;2024-02-28T03:09:05;102118.81;;;4.52;77.04
84944;BME280;75231;53.650;9.788;2024-02-28T03:11:32;102102.69;;;4.45;77.30
84944;BME280;75231;53.650;9.788;2024-02-28T03:14:00;102099.97;;;4.55;76.63
84944;BME280;75231;53.650;9.788;2024-02-28T03:16:25;102086.38;;;4.51;76.75
84944;BME280;75231;53.650;9.788;2024-02-28T03:18:50;102086.38;;;4.51;77.73
84944;BME280;75231;53.650;9.788;2024-02-28T03:21:15;102077.84;;;4.51;76.31
84944;BME280;75231;53.650;9.788;2024-02-28T03:23:42;102078.66;;;4.53;76.66
84944;BME280;75231;53.650;9.788;2024-02-28T03:26:07;102093.16;;;4.54;77.10
84944;BME280;75231;53.650;9.788;2024-02-28T03:28:32;102083.75;;;4.54;76.91
84944;BME280;75231;53.650;9.788;2024-02-28T03:30:57;102081.16;;;4.57;77.54
84944;BME280;75231;53.650;9.788;2024-02-28T03:33:23;102088.81;;;4.59;76.53
84944;BME280;75231;53.650;9.788;2024-02-28T03:35:50;102095.66;;;4.58;77.08
84944;BME280;75231;53.650;9.788;2024-02-28T03:38:15;102100.72;;;4.61;77.57
84944;BME280;75231;53.650;9.788;2024-02-28T03:40:40;102088.78;;;4.60;77.16
84944;BME280;75231;53.650;9.788;2024-02-28T03:43:05;102099.81;;;4.65;77.71
84944;BME280;75231;53.650;9.788;2024-02-28T03:45:36;102093.84;;;4.63;77.14
84944;BME280;75231;53.650;9.788;2024-02-28T03:48:03;102097.28;;;4.62;76.39
84944;BME280;75231;53.650;9.788;2024-02-28T03:50:28;102101.59;;;4.60;76.83
84944;BME280;75231;53.650;9.788;2024-02-28T03:52:54;102102.50;;;4.56;77.13
84944;BME280;75231;53.650;9.788;2024-02-28T03:55:19;102097.41;;;4.55;77.08
84944;BME280;75231;53.650;9.788;2024-02-28T03:57:48;102099.97;;;4.55;77.36
84944;BME280;75231;53.650;9.788;2024-02-28T04:00:14;102092.31;;;4.53;77.50
84944;BME280;75231;53.650;9.788;2024-02-28T04:02:40;102094.97;;;4.47;78.00
84944;BME280;75231;53.650;9.788;2024-02-28T04:05:05;102090.78;;;4.43;77.83
84944;BME280;75231;53.650;9.788;2024-02-28T04:07:31;102086.50;;;4.43;78.31
84944;BME280;75231;53.650;9.788;2024-02-28T04:09:56;102072.91;;;4.38;78.22
84944;BME280;75231;53.650;9.788;2024-02-28T04:12:21;102083.19;;;4.37;78.71
84944;BME280;75231;53.650;9.788;2024-02-28T04:14:47;102087.50;;;4.35;78.81
84944;BME280;75231;53.650;9.788;2024-02-28T04:17:12;102086.72;;;4.28;78.34
84944;BME280;75231;53.650;9.788;2024-02-28T04:19:37;102082.63;;;4.16;78.92
84944;BME280;75231;53.650;9.788;2024-02-28T04:22:04;102074.22;;;4.08;79.87
84944;BME280;75231;53.650;9.788;2024-02-28T04:24:29;102086.25;;;4.03;79.99
84944;BME280;75231;53.650;9.788;2024-02-28T04:26:55;102081.22;;;3.97;79.99
84944;BME280;75231;53.650;9.788;2024-02-28T04:29:20;102086.25;;;4.03;80.45
84944;BME280;75231;53.650;9.788;2024-02-28T04:31:45;102086.25;;;4.03;80.80
84944;BME280;75231;53.650;9.788;2024-02-28T04:34:11;102081.97;;;4.04;80.94
84944;BME280;75231;53.650;9.788;2024-02-28T04:36:36;102098.97;;;4.08;80.24
84944;BME280;75231;53.650;9.788;2024-02-28T04:39:01;102092.94;;;4.13;80.25
84944;BME280;75231;53.650;9.788;2024-02-28T04:41:28;102092.03;;;4.16;80.39
84944;BME280;75231;53.650;9.788;2024-02-28T04:43:53;102101.34;;;4.21;80.41
84944;BME280;75231;53.650;9.788;2024-02-28T04:46:18;102089.31;;;4.27;81.00
84944;BME280;75231;53.650;9.788;2024-02-28T04:48:43;102085.84;;;4.31;80.46
84944;BME280;75231;53.650;9.788;2024-02-28T04:51:09;102085.81;;;4.32;79.86
84944;BME280;75231;53.650;9.788;2024-02-28T04:53:34;102089.22;;;4.33;80.59
84944;BME280;75231;53.650;9.788;2024-02-28T04:55:59;102092.66;;;4.32;80.17
84944;BME280;75231;53.650;9.788;2024-02-28T04:58:25;102089.25;;;4.30;80.82
84944;BME280;75231;53.650;9.788;2024-02-28T05:00:50;102094.31;;;4.33;79.09
84944;BME280;75231;53.650;9.788;2024-02-28T05:03:16;102099.44;;;4.36;79.68
84944;BME280;75231;53.650;9.788;2024-02-28T05:05:42;102086.75;;;4.27;79.77
84944;BME280;75231;53.650;9.788;2024-02-28T05:08:07;102092.69;;;4.29;79.62
84944;BME280;75231;53.650;9.788;2024-02-28T05:10:32;102099.53;;;4.28;79.47
84944;BME280;75231;53.650;9.788;2024-02-28T05:12:59;102105.44;;;4.33;79.62
84944;BME280;75231;53.650;9.788;2024-02-28T05:15:24;102102.03;;;4.34;79.60
84944;BME280;75231;53.650;9.788;2024-02-28T05:17:50;102106.25;;;4.37;79.63
84944;BME280;75231;53.650;9.788;2024-02-28T05:20:17;102104.50;;;4.39;80.05
84944;BME280;75231;53.650;9.788;2024-02-28T05:22:42;102107.13;;;4.36;79.88
84944;BME280;75231;53.650;9.788;2024-02-28T05:25:07;102105.41;;;4.36;79.81
84944;BME280;75231;53.650;9.788;2024-02-28T05:27:33;102107.88;;;4.41;79.51
84944;BME280;75231;53.650;9.788;2024-02-28T05:29:58;102101.06;;;4.40;79.31
84944;BME280;75231;53.650;9.788;2024-02-28T05:32:26;102102.81;;;4.38;78.80
84944;BME280;75231;53.650;9.788;2024-02-28T05:34:51;102107.09;;;4.37;79.36
84944;BME280;75231;53.650;9.788;2024-02-28T05:37:16;102107.94;;;4.38;79.92
84944;BME280;75231;53.650;9.788;2024-02-28T05:39:42;102107.84;;;4.44;80.04
84944;BME280;75231;53.650;9.788;2024-02-28T05:42:08;102107.03;;;4.42;79.29
84944;BME280;75231;53.650;9.788;2024-02-28T05:44:34;102116.34;;;4.46;79.52
84944;BME280;75231;53.650;9.788;2024-02-28T05:46:59;102114.66;;;4.45;79.97
84944;BME280;75231;53.650;9.788;2024-02-28T05:49:25;102119.78;;;4.45;79.35
84944;BME280;75231;53.650;9.788;2024-02-28T05:51:50;102121.44;;;4.47;79.17
84944;BME280;75231;53.650;9.788;2024-02-28T05:54:16;102120.59;;;4.47;79.45
84944;BME280;75231;53.650;9.788;2024-02-28T05:56:41;102117.16;;;4.49;79.92
84944;BME280;75231;53.650;9.788;2024-02-28T05:59:06;102121.38;;;4.52;79.68
84944;BME280;75231;53.650;9.788;2024-02-28T06:01:32;102116.25;;;4.52;79.32
84944;BME280;75231;53.650;9.788;2024-02-28T06:03:57;102121.38;;;4.52;79.20
84944;BME280;75231;53.650;9.788;2024-02-28T06:06:22;102135.84;;;4.55;79.48
84944;BME280;75231;53.650;9.788;2024-02-28T06:08:48;102128.22;;;4.52;80.26
84944;BME280;75231;53.650;9.788;2024-02-28T06:11:13;102118.00;;;4.50;79.48
84944;BME280;75231;53.650;9.788;2024-02-28T06:13:40;102111.13;;;4.52;79.22
84944;BME280;75231;53.650;9.788;2024-02-28T06:16:06;102114.50;;;4.54;79.26
84944;BME280;75231;53.650;9.788;2024-02-28T06:18:31;102112.81;;;4.53;79.45
84944;BME280;75231;53.650;9.788;2024-02-28T06:20:58;102119.69;;;4.51;79.98
84944;BME280;75231;53.650;9.788;2024-02-28T06:23:24;102124.91;;;4.45;79.89
84944;BME280;75231;53.650;9.788;2024-02-28T06:25:49;102133.44;;;4.45;79.50
84944;BME280;75231;53.650;9.788;2024-02-28T06:28:15;102132.66;;;4.42;79.71
84944;BME280;75231;53.650;9.788;2024-02-28T06:30:40;102138.66;;;4.38;79.95
84944;BME280;75231;53.650;9.788;2024-02-28T06:33:05;102138.59;;;4.41;79.83
84944;BME280;75231;53.650;9.788;2024-02-28T06:35:31;102146.25;;;4.45;80.32
84944;BME280;75231;53.650;9.788;2024-02-28T06:37:56;102142.88;;;4.43;79.38
84944;BME280;75231;53.650;9.788;2024-02-28T06:40:22;102145.44;;;4.42;79.45
84944;BME280;75231;53.650;9.788;2024-02-28T06:42:47;102148.84;;;4.44;80.35
84944;BME280;75231;53.650;9.788;2024-02-28T06:45:12;102144.59;;;4.43;79.88
84944;BME280;75231;53.650;9.788;2024-02-28T06:47:38;102142.91;;;4.42;79.95
84944;BME280;75231;53.650;9.788;2024-02-28T06:50:04;102136.78;;;4.49;80.05
84944;BME280;75231;53.650;9.788;2024-02-28T06:52:30;102140.84;;;4.62;79.31
84944;BME280;75231;53.650;9.788;2024-02-28T06:54:55;102139.91;;;4.68;79.04
84944;BME280;75231;53.650;9.788;2024-02-28T06:57:21;102144.94;;;4.72;79.19
84944;BME280;75231;53.650;9.788;2024-02-28T06:59:46;102151.75;;;4.75;78.81
84944;BME280;75231;53.650;9.788;2024-02-28T07:02:11;102151.78;;;4.73;79.21
84944;BME280;75231;53.650;9.788;2024-02-28T07:04:38;102162.78;;;4.82;79.13
84944;BME280;75231;53.650;9.788;2024-02-28T07:07:04;102166.97;;;4.86;79.10
84944;BME280;75231;53.650;9.788;2024-02-28T07:09:30;102154.19;;;4.81;78.42
84944;BME280;75231;53.650;9.788;2024-02-28T07:11:57;102159.19;;;4.89;78.66
84944;BME280;75231;53.650;9.788;2024-02-28T07:14:22;102156.50;;;4.98;79.40
84944;BME280;75231;53.650;9.788;2024-02-28T07:16:48;102160.69;;;5.02;78.87
84944;BME280;75231;53.650;9.788;2024-02-28T07:19:13;102163.19;;;5.05;78.83
84944;BME280;75231;53.650;9.788;2024-02-28T07:21:38;102164.91;;;5.06;78.47
84944;BME280;75231;53.650;9.788;2024-02-28T07:24:04;102164.91;;;5.04;78.62
84944;BME280;75231;53.650;9.788;2024-02-28T07:26:31;102171.72;;;5.07;78.80
84944;BME280;75231;53.650;9.788;2024-02-28T07:28:56;102169.06;;;5.12;78.88
84944;BME280;75231;53.650;9.788;2024-02-28T07:31:21;102178.31;;;5.20;78.79
84944;BME280;75231;53.650;9.788;2024-02-28T07:33:47;102180.78;;;5.26;78.37
84944;BME280;75231;53.650;9.788;2024-02-28T07:36:12;102187.53;;;5.32;78.14
84944;BME280;75231;53.650;9.788;2024-02-28T07:38:38;102179.03;;;5.30;78.28
84944;BME280;75231;53.650;9.788;2024-02-28T07:41:04;102177.31;;;5.29;77.78
84944;BME280;75231;53.650;9.788;2024-02-28T07:43:29;102185.88;;;5.28;78.41
84944;BME280;75231;53.650;9.788;2024-02-28T07:45:58;102186.72;;;5.28;78.59
84944;BME280;75231;53.650;9.788;2024-02-28T07:48:24;102186.59;;;5.38;78.57
84944;BME280;75231;53.650;9.788;2024-02-28T07:50:49;102185.59;;;5.43;78.36
84944;BME280;75231;53.650;9.788;2024-02-28T07:53:17;102191.41;;;5.53;78.01
84944;BME280;75231;53.650;9.788;2024-02-28T07:55:42;102189.53;;;5.61;77.95
84944;BME280;75231;53.650;9.788;2024-02-28T07:58:08;102200.59;;;5.65;77.47
84944;BME280;75231;53.650;9.788;2024-02-28T08:00:34;102204.81;;;5.67;77.49
84944;BME280;75231;53.650;9.788;2024-02-28T08:02:59;102211.72;;;5.65;78.10
84944;BME280;75231;53.650;9.788;2024-02-28T08:05:24;102203.78;;;5.76;77.71
84944;BME280;75231;53.650;9.788;2024-02-28T08:07:51;102197.78;;;5.78;77.52
84944;BME280;75231;53.650;9.788;2024-02-28T08:10:17;102192.69;;;5.75;77.76
84944;BME280;75231;53.650;9.788;2024-02-28T08:12:42;102194.44;;;5.73;77.41
84944;BME280;75231;53.650;9.788;2024-02-28T08:15:08;102218.28;;;5.80;77.61
84944;BME280;75231;53.650;9.788;2024-02-28T08:17:33;102204.63;;;5.76;77.91
84944;BME280;75231;53.650;9.788;2024-02-28T08:19:58;102217.44;;;5.79;78.29
84944;BME280;75231;53.650;9.788;2024-02-28T08:22:24;102196.38;;;5.62;77.87
84944;BME280;75231;53.650;9.788;2024-02-28T08:24:57;102209.72;;;5.79;78.24
84944;BME280;75231;53.650;9.788;2024-02-28T08:27:22;102195.91;;;5.85;78.29
84944;BME280;75231;53.650;9.788;2024-02-28T08:29:48;102198.34;;;5.93;77.97
84944;BME280;75231;53.650;9.788;2024-02-28T08:32:14;102180.66;;;5.79;78.05
84944;BME280;75231;53.650;9.788;2024-02-28T08:34:43;102204.38;;;5.92;78.37
84944;BME280;75231;53.650;9.788;2024-02-28T08:37:10;102176.44;;;5.75;78.39
84944;BME280;75231;53.650;9.788;2024-02-28T08:39:35;102176.41;;;5.76;78.35
84944;BME280;75231;53.650;9.788;2024-02-28T08:42:10;102195.91;;;5.85;78.34
84944;BME280;75231;53.650;9.788;2024-02-28T08:44:35;102195.28;;;5.74;78.49
84944;BME280;75231;53.650;9.788;2024-02-28T08:47:00;102197.47;;;5.95;78.24
84944;BME280;75231;53.650;9.788;2024-02-28T08:49:25;102212.16;;;6.29;77.86
84944;BME280;75231;53.650;9.788;2024-02-28T08:51:51;102211.69;;;6.50;76.64
84944;BME280;75231;53.650;9.788;2024-02-28T08:54:16;102212.06;;;6.70;75.88
84944;BME280;75231;53.650;9.788;2024-02-28T08:56:42;102207.72;;;6.74;75.57
84944;BME280;75231;53.650;9.788;2024-02-28T08:59:07;102199.59;;;6.89;75.37
84944;BME280;75231;53.650;9.788;2024-02-28T09:01:32;102211.44;;;6.96;74.82
84944;BME280;75231;53.650;9.788;2024-02-28T09:04:00;102226.44;;;7.15;74.38
84944;BME280;75231;53.650;9.788;2024-02-28T09:06:25;102217.84;;;7.16;73.79
84944;BME280;75231;53.650;9.788;2024-02-28T09:08:50;102226.69;;;7.04;74.37
84944;BME280;75231;53.650;9.788;2024-02-28T09:11:15;102232.75;;;7.01;74.33
84944;BME280;75231;53.650;9.788;2024-02-28T09:13:41;102236.88;;;7.09;74.49
84944;BME280;75231;53.650;9.788;2024-02-28T09:16:08;102237.03;;;7.03;74.33
84944;BME280;75231;53.650;9.788;2024-02-28T09:18:35;102221.72;;;6.98;74.73
84944;BME280;75231;53.650;9.788;2024-02-28T09:21:00;102232.00;;;6.98;74.89
84944;BME280;75231;53.650;9.788;2024-02-28T09:23:26;102218.03;;;7.08;74.55
84944;BME280;75231;53.650;9.788;2024-02-28T09:25:51;102235.84;;;7.16;74.51
84944;BME280;75231;53.650;9.788;2024-02-28T09:28:16;102229.66;;;7.23;74.87
84944;BME280;75231;53.650;9.788;2024-02-28T09:30:42;102228.63;;;7.30;74.39
84944;BME280;75231;53.650;9.788;2024-02-28T09:33:08;102229.13;;;7.43;74.37
84944;BME280;75231;53.650;9.788;2024-02-28T09:35:34;102222.16;;;7.48;74.08
84944;BME280;75231;53.650;9.788;2024-02-28T09:37:59;102225.66;;;7.44;73.08
84944;BME280;75231;53.650;9.788;2024-02-28T09:40:25;102222.50;;;7.34;73.54
84944;BME280;75231;53.650;9.788;2024-02-28T09:42:55;102237.75;;;7.42;73.95
84944;BME280;75231;53.650;9.788;2024-02-28T09:45:23;102216.50;;;7.34;74.21
84944;BME280;75231;53.650;9.788;2024-02-28T09:47:49;102226.94;;;7.27;73.94
84944;BME280;75231;53.650;9.788;2024-02-28T09:50:15;102219.84;;;7.37;75.37
84944;BME280;75231;53.650;9.788;2024-02-28T09:52:40;102216.69;;;7.58;73.80
84944;BME280;75231;53.650;9.788;2024-02-28T09:55:06;102220.50;;;7.76;72.64
84944;BME280;75231;53.650;9.788;2024-02-28T09:57:32;102211.44;;;7.94;71.75
84944;BME280;75231;53.650;9.788;2024-02-28T10:00:03;102208.69;;;7.99;71.93
84944;BME280;75231;53.650;9.788;2024-02-28T10:02:30;102212.78;;;8.06;72.01
84944;BME280;75231;53.650;9.788;2024-02-28T10:04:56;102211.19;;;8.02;72.23
84944;BME280;75231;53.650;9.788;2024-02-28T10:07:23;102219.69;;;8.05;72.31
84944;BME280;75231;53.650;9.788;2024-02-28T10:09:48;102230.31;;;7.93;72.21
84944;BME280;75231;53.650;9.788;2024-02-28T10:12:15;102220.28;;;7.84;72.84
84944;BME280;75231;53.650;9.788;2024-02-28T10:14:44;102208.13;;;7.89;72.74
84944;BME280;75231;53.650;9.788;2024-02-28T10:17:09;102227.75;;;8.23;71.87
84944;BME280;75231;53.650;9.788;2024-02-28T10:19:34;102238.22;;;8.48;72.56
84944;BME280;75231;53.650;9.788;2024-02-28T10:22:00;102222.78;;;8.46;71.40
84944;BME280;75231;53.650;9.788;2024-02-28T10:24:25;102242.25;;;8.56;69.53
84944;BME280;75231;53.650;9.788;2024-02-28T10:26:50;102218.59;;;8.42;71.08
84944;BME280;75231;53.650;9.788;2024-02-28T10:29:25;102225.91;;;8.28;70.77
84944;BME280;75231;53.650;9.788;2024-02-28T10:31:56;102230.53;;;8.46;71.44
84944;BME280;75231;53.650;9.788;2024-02-28T10:34:21;102231.75;;;8.62;71.31
84944;BME280;75231;53.650;9.788;2024-02-28T10:36:47;102239.06;;;8.76;71.08
84944;BME280;75231;53.650;9.788;2024-02-28T10:39:13;102243.75;;;8.63;70.81
84944;BME280;75231;53.650;9.788;2024-02-28T10:41:39;102228.63;;;8.53;70.83
84944;BME280;75231;53.650;9.788;2024-02-28T10:44:04;102245.13;;;8.75;70.70
84944;BME280;75231;53.650;9.788;2024-02-28T10:46:32;102251.91;;;8.78;71.52
84944;BME280;75231;53.650;9.788;2024-02-28T10:49:03;102241.88;;;8.68;70.23
84944;BME280;75231;53.650;9.788;2024-02-28T10:51:36;102243.75;;;8.63;69.94
84944;BME280;75231;53.650;9.788;2024-02-28T10:54:09;102253.78;;;8.73;70.60
84944;BME280;75231;53.650;9.788;2024-02-28T10:56:37;102234.13;;;8.40;71.83
84944;BME280;75231;53.650;9.788;2024-02-28T10:59:06;102255.53;;;8.44;71.15
84944;BME280;75231;53.650;9.788;2024-02-28T11:01:34;102257.50;;;8.34;72.44
84944;BME280;75231;53.650;9.788;2024-02-28T11:03:59;102260.81;;;8.39;72.63
84944;BME280;75231;53.650;9.788;2024-02-28T11:06:25;102257.81;;;8.53;72.07
84944;BME280;75231;53.650;9.788;2024-02-28T11:08:51;102255.59;;;8.43;71.75
84944;BME280;75231;53.650;9.788;2024-02-28T11:11:21;102246.97;;;8.42;71.62
84944;BME280;75231;53.650;9.788;2024-02-28T11:13:55;102250.31;;;8.46;72.32
84944;BME280;75231;53.650;9.788;2024-02-28T11:18:53;102264.78;;;8.51;70.30
84944;BME280;75231;53.650;9.788;2024-02-28T11:21:19;102266.47;;;8.52;71.82
84944;BME280;75231;53.650;9.788;2024-02-28T11:23:48;102258.06;;;8.46;71.47
84944;BME280;75231;53.650;9.788;2024-02-28T11:26:13;102249.59;;;8.40;71.72
84944;BME280;75231;53.650;9.788;2024-02-28T11:28:39;102265.03;;;8.42;72.15
84944;BME280;75231;53.650;9.788;2024-02-28T11:31:05;102242.13;;;8.31;72.83
84944;BME280;75231;53.650;9.788;2024-02-28T11:33:30;102258.28;;;8.38;73.37
84944;BME280;75231;53.650;9.788;2024-02-28T11:35:59;102259.00;;;8.43;73.62
84944;BME280;75231;53.650;9.788;2024-02-28T11:38:27;102251.38;;;8.38;72.80
84944;BME280;75231;53.650;9.788;2024-02-28T11:40:53;102251.59;;;8.31;73.31
84944;BME280;75231;53.650;9.788;2024-02-28T11:43:19;102236.50;;;8.19;73.23
84944;BME280;75231;53.650;9.788;2024-02-28T11:45:44;102264.09;;;8.45;74.57
84944;BME280;75231;53.650;9.788;2024-02-28T11:48:12;102251.50;;;8.35;73.62
84944;BME280;75231;53.650;9.788;2024-02-28T11:50:39;102259.69;;;8.48;74.17
84944;BME280;75231;53.650;9.788;2024-02-28T11:53:04;102267.31;;;8.53;73.58
84944;BME280;75231;53.650;9.788;2024-02-28T11:55:30;102258.63;;;8.55;74.62
84944;BME280;75231;53.650;9.788;2024-02-28T11:57:58;102263.72;;;8.57;74.56
84944;BME280;75231;53.650;9.788;2024-02-28T12:00:27;102262.16;;;8.53;74.07
84944;BME280;75231;53.650;9.788;2024-02-28T12:02:52;102256.75;;;8.31;74.61
84944;BME280;75231;53.650;9.788;2024-02-28T12:05:29;102254.16;;;8.31;75.25
84944;BME280;75231;53.650;9.788;2024-02-28T12:07:54;102260.31;;;8.27;76.08
84944;BME280;75231;53.650;9.788;2024-02-28T12:10:20;102253.44;;;8.26;76.25
84944;BME280;75231;53.650;9.788;2024-02-28T12:12:47;102255.66;;;8.08;76.03
84944;BME280;75231;53.650;9.788;2024-02-28T12:15:15;102260.69;;;8.13;76.92
84944;BME280;75231;53.650;9.788;2024-02-28T12:17:42;102248.16;;;8.01;76.50
84944;BME280;75231;53.650;9.788;2024-02-28T12:20:08;102266.03;;;8.07;76.75
84944;BME280;75231;53.650;9.788;2024-02-28T12:22:34;102266.06;;;8.05;76.82
84944;BME280;75231;53.650;9.788;2024-02-28T12:24:59;102264.06;;;8.15;75.92
84944;BME280;75231;53.650;9.788;2024-02-28T12:27:29;102256.38;;;8.13;76.31
84944;BME280;75231;53.650;9.788;2024-02-28T12:29:56;102246.03;;;8.15;76.80
84944;BME280;75231;53.650;9.788;2024-02-28T12:32:21;102241.03;;;8.09;76.73
84944;BME280;75231;53.650;9.788;2024-02-28T12:34:46;102255.16;;;8.27;76.04
84944;BME280;75231;53.650;9.788;2024-02-28T12:37:12;102244.00;;;8.26;76.48
84944;BME280;75231;53.650;9.788;2024-02-28T12:39:37;102230.94;;;8.03;76.37
84944;BME280;75231;53.650;9.788;2024-02-28T12:42:03;102248.81;;;8.07;76.58
84944;BME280;75231;53.650;9.788;2024-02-28T12:44:28;102238.72;;;8.00;77.44
84944;BME280;75231;53.650;9.788;2024-02-28T12:46:56;102228.84;;;7.86;78.47
84944;BME280;75231;53.650;9.788;2024-02-28T12:49:22;102233.22;;;7.82;78.33
84944;BME280;75231;53.650;9.788;2024-02-28T12:51:47;102238.38;;;7.82;79.51
84944;BME280;75231;53.650;9.788;2024-02-28T12:54:14;102217.75;;;7.82;80.92
84944;BME280;75231;53.650;9.788;2024-02-28T12:56:40;102226.91;;;7.93;80.47